Back to Top

Language: 

My Weather Underground Personal Weather Station Historical Data with Graphs...

Delerius Weather Station Historical Data
Daily Summary for September 2, 2017 Units:  English    Metric   Both
« Previous Day
Next Day »
Daily Weekly Monthly Yearly Custom
  High: Low: Average:
Temperature: 67.5 °F 44.8 °F 57 °F
Dew Point: 55.1 °F 43.4 °F 49.6 °F
Humidity: 97 % 56 % 78 %
Wind Speed: 9.0 mph 0.0 mph 1.5 mph
Wind Gust: 13.0 mph - -
Wind:- - SSW
Pressure: 30.22 in 30.03 in -
Precipitation: 0.01 in    
Historical Graphs
 
 
Tabular Data for September 2, 2017
Time Temperature Dew Point Pressure Wind Wind Speed Wind Gust Humidity Rainfall Rate (Hourly) solar Conditions
00:04 54.9 °F 52.9 °F 30.22 in Calm     93 % 0.00 in 0 W/m2
00:09 54.7 °F 52.7 °F 30.22 in Calm     93 % 0.00 in 0 W/m2
00:14 54.3 °F 52.3 °F 30.22 in Calm     93 % 0.00 in 0 W/m2
00:19 54.1 °F 52.2 °F 30.22 in Calm     93 % 0.00 in 0 W/m2
00:24 54.0 °F 52.0 °F 30.22 in Calm     93 % 0.00 in 0 W/m2
00:29 53.8 °F 51.8 °F 30.22 in Calm     93 % 0.00 in 0 W/m2
00:30 53.8 °F 51.8 °F 30.22 in Calm     93 % 0.00 in 0 W/m2
00:35 53.4 °F 51.4 °F 30.22 in Calm     93 % 0.00 in 0 W/m2
00:40 53.2 °F 51.3 °F 30.22 in Calm     93 % 0.00 in 0 W/m2
00:45 53.2 °F 51.3 °F 30.22 in Calm     93 % 0.00 in 0 W/m2
00:50 53.2 °F 51.6 °F 30.22 in Calm   1.0 mph 94 % 0.00 in 0 W/m2
00:55 53.1 °F 51.4 °F 30.22 in Calm   1.0 mph 94 % 0.00 in 0 W/m2
01:00 53.1 °F 51.4 °F 30.22 in Calm     94 % 0.00 in 0 W/m2
01:05 52.9 °F 51.2 °F 30.22 in Calm   2.0 mph 94 % 0.00 in 0 W/m2
01:10 52.9 °F 51.2 °F 30.22 in Calm   2.0 mph 94 % 0.00 in 0 W/m2
01:15 52.7 °F 51.0 °F 30.22 in Calm   1.0 mph 94 % 0.00 in 0 W/m2
01:20 52.5 °F 50.8 °F 30.22 in Calm     94 % 0.00 in 0 W/m2
01:25 52.3 °F 50.7 °F 30.22 in Calm     94 % 0.00 in 0 W/m2
01:30 52.3 °F 50.7 °F 30.22 in Calm   2.0 mph 94 % 0.00 in 0 W/m2
01:35 52.2 °F 50.5 °F 30.22 in Calm   2.0 mph 94 % 0.00 in 0 W/m2
01:40 52.2 °F 50.5 °F 30.22 in Calm   2.0 mph 94 % 0.00 in 0 W/m2
01:45 52.0 °F 50.3 °F 30.22 in Calm     94 % 0.00 in 0 W/m2
01:50 51.8 °F 50.1 °F 30.22 in Calm     94 % 0.00 in 0 W/m2
01:55 51.6 °F 49.9 °F 30.22 in Calm     94 % 0.00 in 0 W/m2
02:00 51.4 °F 49.8 °F 30.22 in Calm     94 % 0.00 in 0 W/m2
02:05 51.3 °F 49.6 °F 30.22 in Calm     94 % 0.00 in 0 W/m2
02:10 51.1 °F 49.4 °F 30.22 in Calm     94 % 0.00 in 0 W/m2
02:15 50.9 °F 49.2 °F 30.22 in Calm     94 % 0.00 in 0 W/m2
02:20 50.7 °F 49.1 °F 30.22 in Calm     94 % 0.00 in 0 W/m2
02:25 50.5 °F 48.9 °F 30.22 in Calm     94 % 0.00 in 0 W/m2
02:30 50.4 °F 48.7 °F 30.22 in Calm   2.0 mph 94 % 0.00 in 0 W/m2
02:35 50.4 °F 48.7 °F 30.22 in Calm   2.0 mph 94 % 0.00 in 0 W/m2
02:40 50.2 °F 48.5 °F 30.22 in Calm     94 % 0.00 in 0 W/m2
02:45 50.0 °F 48.3 °F 30.22 in Calm     94 % 0.00 in 0 W/m2
02:50 49.8 °F 48.2 °F 30.22 in Calm     94 % 0.00 in 0 W/m2
02:55 49.6 °F 48.0 °F 30.22 in Calm   1.0 mph 94 % 0.00 in 0 W/m2
03:00 49.5 °F 47.8 °F 30.21 in Calm   1.0 mph 94 % 0.00 in 0 W/m2
03:05 49.3 °F 47.9 °F 30.22 in Calm   1.0 mph 95 % 0.00 in 0 W/m2
03:11 49.3 °F 47.6 °F 30.21 in Calm   2.0 mph 94 % 0.00 in 0 W/m2
03:16 49.3 °F 47.9 °F 30.22 in Calm   2.0 mph 95 % 0.00 in 0 W/m2
03:21 48.9 °F 47.3 °F 30.22 in Calm     94 % 0.00 in 0 W/m2
03:26 48.7 °F 47.1 °F 30.21 in Calm     94 % 0.00 in 0 W/m2
03:31 48.6 °F 46.9 °F 30.21 in Calm     94 % 0.00 in 0 W/m2
03:36 48.4 °F 46.7 °F 30.21 in Calm     94 % 0.00 in 0 W/m2
03:41 48.0 °F 46.4 °F 30.21 in Calm     94 % 0.00 in 0 W/m2
03:46 47.8 °F 46.2 °F 30.21 in Calm   2.0 mph 94 % 0.00 in 0 W/m2
03:51 47.8 °F 46.2 °F 30.21 in Calm   2.0 mph 94 % 0.00 in 0 W/m2
03:56 47.8 °F 46.5 °F 30.21 in Calm   2.0 mph 95 % 0.00 in 0 W/m2
04:01 47.8 °F 46.5 °F 30.21 in Calm     95 % 0.00 in 0 W/m2
04:06 47.7 °F 46.3 °F 30.21 in Calm     95 % 0.00 in 0 W/m2
04:11 47.5 °F 46.1 °F 30.21 in Calm     95 % 0.00 in 0 W/m2
04:16 47.3 °F 45.9 °F 30.20 in Calm     95 % 0.00 in 0 W/m2
04:21 47.1 °F 45.8 °F 30.20 in Calm     95 % 0.00 in 0 W/m2
04:23 47.1 °F 45.8 °F 30.20 in Calm     95 % 0.00 in 0 W/m2
04:24 47.1 °F 45.8 °F 30.20 in Calm     95 % 0.00 in 0 W/m2
04:25 47.1 °F 45.8 °F 30.20 in Calm     95 % 0.00 in 0 W/m2
04:30 46.9 °F 45.6 °F 30.20 in Calm     95 % 0.00 in 0 W/m2
04:33 46.9 °F 45.6 °F 30.20 in Calm     95 % 0.00 in 0 W/m2
04:35 46.9 °F 45.6 °F 30.20 in Calm     95 % 0.00 in 0 W/m2
04:36 46.8 °F 45.4 °F 30.20 in Calm     95 % 0.00 in 0 W/m2
04:41 46.8 °F 45.4 °F 30.20 in Calm     95 % 0.00 in 0 W/m2
04:46 46.6 °F 45.2 °F 30.20 in Calm     95 % 0.00 in 0 W/m2
04:51 46.4 °F 45.0 °F 30.19 in Calm     95 % 0.00 in 0 W/m2
04:56 46.4 °F 45.0 °F 30.20 in Calm     95 % 0.00 in 0 W/m2
05:01 46.2 °F 44.9 °F 30.20 in Calm     95 % 0.00 in 0 W/m2
05:06 46.0 °F 44.7 °F 30.19 in Calm     95 % 0.00 in 0 W/m2
05:11 46.0 °F 44.7 °F 30.19 in Calm     95 % 0.00 in 0 W/m2
05:16 45.9 °F 44.5 °F 30.20 in Calm     95 % 0.00 in 0 W/m2
05:20 45.9 °F 44.5 °F 30.20 in Calm     95 % 0.00 in 0 W/m2
05:25 45.7 °F 44.3 °F 30.20 in Calm     95 % 0.00 in 0 W/m2
05:30 45.7 °F 44.3 °F 30.20 in Calm     95 % 0.00 in 0 W/m2
05:35 45.7 °F 44.6 °F 30.20 in Calm     96 % 0.00 in 0 W/m2
05:40 45.9 °F 44.8 °F 30.20 in Calm     96 % 0.00 in 0 W/m2
05:45 46.0 °F 45.0 °F 30.20 in Calm     96 % 0.00 in 0 W/m2
05:50 46.0 °F 45.0 °F 30.20 in Calm     96 % 0.00 in 0 W/m2
05:55 46.0 °F 45.0 °F 30.20 in Calm     96 % 0.00 in 0 W/m2
06:00 45.9 °F 44.8 °F 30.20 in Calm     96 % 0.00 in 0 W/m2
06:05 45.7 °F 44.3 °F 30.20 in Calm     95 % 0.00 in 0 W/m2
06:10 45.5 °F 44.4 °F 30.20 in Calm     96 % 0.00 in 0 W/m2
06:15 45.3 °F 44.0 °F 30.20 in Calm     95 % 0.00 in 0 W/m2
06:20 45.1 °F 43.8 °F 30.20 in Calm     95 % 0.00 in 5 W/m2
06:25 45.0 °F 43.6 °F 30.20 in Calm     95 % 0.00 in 9 W/m2
06:30 44.8 °F 43.7 °F 30.20 in Calm     96 % 0.00 in 11 W/m2
06:35 44.8 °F 43.4 °F 30.20 in Calm     95 % 0.00 in 14 W/m2
06:40 44.8 °F 43.7 °F 30.20 in Calm     96 % 0.00 in 16 W/m2
06:50 44.8 °F 43.7 °F 30.19 in Calm     96 % 0.01 in 21 W/m2
06:55 44.8 °F 43.7 °F 30.20 in Calm     96 % 0.01 in 23 W/m2
07:00 44.8 °F 43.7 °F 30.20 in Calm     96 % 0.01 in 32 W/m2
07:05 45.0 °F 43.9 °F 30.20 in Calm     96 % 0.01 in 35 W/m2
07:10 45.1 °F 44.1 °F 30.20 in Calm     96 % 0.01 in 46 W/m2
07:15 45.7 °F 44.9 °F 30.20 in Calm     97 % 0.01 in 97 W/m2
07:20 46.2 °F 45.4 °F 30.20 in Calm     97 % 0.01 in 111 W/m2
07:25 46.4 °F 45.6 °F 30.20 in Calm     97 % 0.01 in 121 W/m2
07:31 46.6 °F 45.8 °F 30.20 in Calm     97 % 0.01 in 135 W/m2
07:36 46.9 °F 46.1 °F 30.20 in Calm     97 % 0.01 in 148 W/m2
07:41 47.3 °F 46.5 °F 30.20 in Calm     97 % 0.01 in 162 W/m2
07:46 47.7 °F 46.9 °F 30.20 in Calm     97 % 0.00 in 84 W/m2
07:51 48.0 °F 47.2 °F 30.20 in Calm     97 % 0.00 in 44 W/m2
07:56 48.4 °F 47.6 °F 30.20 in Calm     97 % 0.00 in 162 W/m2
08:01 48.7 °F 47.9 °F 30.20 in Calm     97 % 0.00 in 199 W/m2
08:06 49.3 °F 48.5 °F 30.20 in Calm     97 % 0.00 in 225 W/m2
08:11 49.8 °F 49.0 °F 30.20 in Calm     97 % 0.00 in 239 W/m2
08:16 50.2 °F 49.4 °F 30.20 in Calm     97 % 0.00 in 253 W/m2
08:21 50.7 °F 49.9 °F 30.20 in Calm     97 % 0.00 in 269 W/m2
08:26 51.6 °F 50.8 °F 30.20 in Calm     97 % 0.00 in 283 W/m2
08:31 52.9 °F 52.1 °F 30.20 in Calm     97 % 0.00 in 295 W/m2
08:36 53.4 °F 52.6 °F 30.20 in Calm     97 % 0.00 in 306 W/m2
08:41 54.3 °F 53.5 °F 30.20 in Calm     97 % 0.00 in 322 W/m2
08:46 55.2 °F 53.8 °F 30.20 in Calm   1.0 mph 95 % 0.00 in 339 W/m2
08:51 55.8 °F 53.8 °F 30.20 in Calm   1.0 mph 93 % 0.00 in 352 W/m2
08:56 56.5 °F 53.9 °F 30.20 in Calm     91 % 0.00 in 367 W/m2
09:01 56.8 °F 53.6 °F 30.20 in Calm     89 % 0.00 in 127 W/m2
09:06 56.8 °F 53.0 °F 30.20 in Calm     87 % 0.00 in 156 W/m2
09:11 56.8 °F 53.0 °F 30.20 in Calm     87 % 0.00 in 144 W/m2
09:16 57.0 °F 52.9 °F 30.20 in Calm   1.0 mph 86 % 0.00 in 192 W/m2
09:21 57.2 °F 53.0 °F 30.20 in Calm   1.0 mph 86 % 0.00 in 267 W/m2
09:27 57.4 °F 52.9 °F 30.20 in Calm     85 % 0.00 in 199 W/m2
09:32 57.6 °F 53.1 °F 30.20 in Calm     85 % 0.00 in 436 W/m2
09:37 58.1 °F 53.6 °F 30.20 in Calm     85 % 0.00 in 512 W/m2
09:42 58.5 °F 53.6 °F 30.20 in Calm   1.0 mph 84 % 0.00 in 559 W/m2
09:47 59.4 °F 54.2 °F 30.20 in Calm   1.0 mph 83 % 0.00 in 478 W/m2
09:52 60.1 °F 54.6 °F 30.20 in Calm   1.0 mph 82 % 0.00 in 563 W/m2
09:57 60.6 °F 53.7 °F 30.20 in Calm   1.0 mph 78 % 0.00 in 360 W/m2
10:02 61.2 °F 53.9 °F 30.19 in Calm   1.0 mph 77 % 0.00 in 367 W/m2
10:07 61.3 °F 54.1 °F 30.19 in SSW 1.0 mph 5.0 mph 77 % 0.00 in 422 W/m2
10:12 61.3 °F 54.1 °F 30.19 in SSW 1.0 mph 5.0 mph 77 % 0.00 in 373 W/m2
10:17 61.7 °F 54.1 °F 30.20 in SSW 1.0 mph 4.0 mph 76 % 0.00 in 677 W/m2
10:22 62.1 °F 55.1 °F 30.19 in South 2.0 mph 5.0 mph 78 % 0.00 in 708 W/m2
10:27 62.4 °F 54.8 °F 30.19 in SSE 2.0 mph 5.0 mph 76 % 0.00 in 589 W/m2
10:32 62.8 °F 54.7 °F 30.19 in SE 1.0 mph 5.0 mph 75 % 0.00 in 729 W/m2
10:37 63.3 °F 54.5 °F 30.19 in SSE 1.0 mph 5.0 mph 73 % 0.00 in 758 W/m2
10:42 63.9 °F 54.3 °F 30.19 in SSE 1.0 mph 5.0 mph 71 % 0.00 in 345 W/m2
10:47 63.9 °F 54.3 °F 30.19 in South 2.0 mph 5.0 mph 71 % 0.00 in 485 W/m2
10:52 63.7 °F 53.7 °F 30.19 in South 2.0 mph 6.0 mph 70 % 0.00 in 309 W/m2
10:57 63.9 °F 53.5 °F 30.19 in South 1.0 mph 6.0 mph 69 % 0.00 in 809 W/m2
11:02 64.2 °F 53.8 °F 30.19 in SSW 1.0 mph 6.0 mph 69 % 0.00 in 288 W/m2
11:07 64.0 °F 53.3 °F 30.19 in SW 2.0 mph 5.0 mph 68 % 0.00 in 163 W/m2
11:12 63.9 °F 53.1 °F 30.18 in SW 3.0 mph 6.0 mph 68 % 0.00 in 197 W/m2
11:17 63.7 °F 52.5 °F 30.18 in WSW 2.0 mph 6.0 mph 67 % 0.00 in 207 W/m2
11:22 63.7 °F 52.9 °F 30.18 in WNW 2.0 mph 5.0 mph 68 % 0.00 in 306 W/m2
11:27 63.9 °F 52.3 °F 30.18 in WNW 2.0 mph 5.0 mph 66 % 0.00 in 258 W/m2
11:32 63.9 °F 51.0 °F 30.18 in WNW 1.0 mph 5.0 mph 63 % 0.00 in 232 W/m2
11:37 63.7 °F 50.8 °F 30.18 in Calm   4.0 mph 63 % 0.00 in 207 W/m2
11:42 63.7 °F 51.7 °F 30.18 in Calm   1.0 mph 65 % 0.00 in 188 W/m2
11:47 63.7 °F 51.3 °F 30.18 in Calm   4.0 mph 64 % 0.00 in 156 W/m2
11:52 63.7 °F 51.3 °F 30.18 in WNW 1.0 mph 4.0 mph 64 % 0.00 in 163 W/m2
11:57 63.9 °F 51.0 °F 30.18 in Calm   4.0 mph 63 % 0.00 in 178 W/m2
12:02 63.7 °F 50.4 °F 30.17 in WNW 1.0 mph 4.0 mph 62 % 0.00 in 218 W/m2
12:07 63.3 °F 50.9 °F 30.17 in WNW 1.0 mph 3.0 mph 64 % 0.00 in 246 W/m2
12:12 63.3 °F 51.3 °F 30.17 in WNW 1.0 mph 3.0 mph 65 % 0.00 in 323 W/m2
12:17 63.7 °F 52.1 °F 30.17 in WNW 1.0 mph 4.0 mph 66 % 0.00 in 749 W/m2
12:22 63.9 °F 51.4 °F 30.17 in WNW 1.0 mph 5.0 mph 64 % 0.00 in 485 W/m2
12:28 64.0 °F 51.2 °F 30.17 in WNW 1.0 mph 5.0 mph 63 % 0.00 in 278 W/m2
12:33 64.2 °F 50.5 °F 30.16 in WNW 1.0 mph 4.0 mph 61 % 0.00 in 707 W/m2
12:38 64.8 °F 51.0 °F 30.16 in Calm   4.0 mph 61 % 0.00 in 849 W/m2
12:43 64.9 °F 50.7 °F 30.16 in SSW 1.0 mph 6.0 mph 60 % 0.00 in 663 W/m2
12:48 65.3 °F 51.9 °F 30.16 in South 3.0 mph 8.0 mph 62 % 0.00 in 842 W/m2
12:53 65.8 °F 51.6 °F 30.16 in SSE 3.0 mph 8.0 mph 60 % 0.00 in 889 W/m2
12:58 66.6 °F 52.7 °F 30.16 in SE 3.0 mph 7.0 mph 61 % 0.00 in 905 W/m2
13:03 66.6 °F 51.8 °F 30.16 in SE 3.0 mph 7.0 mph 59 % 0.00 in 287 W/m2
13:08 66.2 °F 52.3 °F 30.16 in SE 2.0 mph 8.0 mph 61 % 0.00 in 244 W/m2
13:13 65.5 °F 51.2 °F 30.16 in ESE 3.0 mph 8.0 mph 60 % 0.00 in 190 W/m2
13:18 65.1 °F 51.3 °F 30.16 in East 2.0 mph 7.0 mph 61 % 0.00 in 141 W/m2
13:23 64.9 °F 51.6 °F 30.16 in East 2.0 mph 6.0 mph 62 % 0.00 in 151 W/m2
13:28 64.9 °F 52.5 °F 30.16 in East 1.0 mph 5.0 mph 64 % 0.00 in 176 W/m2
13:33 64.8 °F 51.9 °F 30.15 in East 2.0 mph 6.0 mph 63 % 0.00 in 246 W/m2
13:38 64.8 °F 52.3 °F 30.15 in East 1.0 mph 6.0 mph 64 % 0.00 in 244 W/m2
13:43 64.9 °F 52.0 °F 30.15 in East 1.0 mph 5.0 mph 63 % 0.00 in 213 W/m2
13:48 64.8 °F 51.9 °F 30.15 in East 1.0 mph 5.0 mph 63 % 0.00 in 274 W/m2
13:53 64.8 °F 52.3 °F 30.15 in East 1.0 mph 4.0 mph 64 % 0.00 in 339 W/m2
13:58 64.9 °F 52.0 °F 30.14 in East 1.0 mph 4.0 mph 63 % 0.00 in 875 W/m2
14:03 65.7 °F 52.3 °F 30.14 in SSE 2.0 mph 8.0 mph 62 % 0.00 in 369 W/m2
14:08 66.0 °F 52.2 °F 30.14 in SE 4.0 mph 10.0 mph 61 % 0.00 in 814 W/m2
14:13 66.4 °F 52.1 °F 30.14 in SE 5.0 mph 10.0 mph 60 % 0.00 in 823 W/m2
14:18 66.6 °F 52.2 °F 30.14 in SE 4.0 mph 9.0 mph 60 % 0.00 in 195 W/m2
14:23 66.6 °F 51.8 °F 30.13 in South 3.0 mph 8.0 mph 59 % 0.00 in 253 W/m2
14:28 66.4 °F 52.1 °F 30.13 in South 5.0 mph 12.0 mph 60 % 0.00 in 772 W/m2
14:33 66.7 °F 52.4 °F 30.13 in SSE 5.0 mph 12.0 mph 60 % 0.00 in 816 W/m2
14:38 67.3 °F 52.0 °F 30.12 in SE 5.0 mph 12.0 mph 58 % 0.00 in 814 W/m2
14:43 67.5 °F 52.2 °F 30.13 in SE 6.0 mph 12.0 mph 58 % 0.00 in 269 W/m2
14:48 67.5 °F 52.2 °F 30.12 in SE 7.0 mph 12.0 mph 58 % 0.00 in 274 W/m2
14:53 67.3 °F 52.5 °F 30.12 in SE 6.0 mph 12.0 mph 59 % 0.00 in 269 W/m2
14:58 67.3 °F 52.5 °F 30.12 in SE 5.0 mph 10.0 mph 59 % 0.00 in 325 W/m2
15:03 67.1 °F 51.4 °F 30.12 in SSE 5.0 mph 10.0 mph 57 % 0.00 in 315 W/m2
15:08 67.1 °F 51.8 °F 30.12 in SSE 3.0 mph 8.0 mph 58 % 0.00 in 274 W/m2
15:13 66.9 °F 52.6 °F 30.11 in SE 3.0 mph 7.0 mph 60 % 0.00 in 272 W/m2
15:18 66.9 °F 51.7 °F 30.12 in South 4.0 mph 9.0 mph 58 % 0.00 in 204 W/m2
15:23 66.7 °F 51.5 °F 30.11 in South 4.0 mph 9.0 mph 58 % 0.00 in 183 W/m2
15:28 66.4 °F 51.2 °F 30.11 in South 4.0 mph 9.0 mph 58 % 0.00 in 232 W/m2
15:33 66.4 °F 51.6 °F 30.11 in South 4.0 mph 9.0 mph 59 % 0.00 in 230 W/m2
15:38 66.6 °F 51.8 °F 30.11 in SSE 4.0 mph 10.0 mph 59 % 0.00 in 239 W/m2
15:43 66.7 °F 52.0 °F 30.10 in SSE 6.0 mph 10.0 mph 59 % 0.00 in 715 W/m2
15:48 66.9 °F 52.1 °F 30.11 in SSE 7.0 mph 12.0 mph 59 % 0.00 in 220 W/m2
15:53 66.7 °F 52.0 °F 30.10 in SSE 6.0 mph 12.0 mph 59 % 0.00 in 176 W/m2
15:58 66.6 °F 51.8 °F 30.10 in South 6.0 mph 12.0 mph 59 % 0.00 in 193 W/m2
16:03 66.6 °F 51.8 °F 30.10 in South 6.0 mph 11.0 mph 59 % 0.00 in 185 W/m2
16:04 66.6 °F 51.3 °F 30.10 in South 6.0 mph 10.0 mph 58 % 0.00 in 183 W/m2
16:09 66.4 °F 51.2 °F 30.10 in South 5.0 mph 9.0 mph 58 % 0.00 in 578 W/m2
16:14 66.6 °F 50.8 °F 30.10 in South 5.0 mph 8.0 mph 57 % 0.00 in 220 W/m2
16:19 66.7 °F 51.0 °F 30.10 in SSW 6.0 mph 13.0 mph 57 % 0.00 in 220 W/m2
16:24 66.4 °F 50.7 °F 30.10 in SW 8.0 mph 13.0 mph 57 % 0.00 in 236 W/m2
16:29 66.4 °F 51.6 °F 30.10 in SW 9.0 mph 13.0 mph 59 % 0.00 in 376 W/m2
16:34 66.6 °F 52.2 °F 30.10 in SW 7.0 mph 12.0 mph 60 % 0.00 in 561 W/m2
16:39 66.7 °F 52.4 °F 30.09 in SW 7.0 mph 12.0 mph 60 % 0.00 in 181 W/m2
16:44 66.6 °F 51.8 °F 30.09 in SSW 7.0 mph 11.0 mph 59 % 0.00 in 279 W/m2
16:49 66.6 °F 51.3 °F 30.09 in SSW 7.0 mph 10.0 mph 58 % 0.00 in 478 W/m2
16:54 66.7 °F 52.0 °F 30.09 in SSW 5.0 mph 9.0 mph 59 % 0.00 in 450 W/m2
16:59 66.9 °F 51.7 °F 30.09 in SSW 5.0 mph 8.0 mph 58 % 0.00 in 272 W/m2
17:04 66.7 °F 51.5 °F 30.09 in SSW 6.0 mph 8.0 mph 58 % 0.00 in 146 W/m2
17:09 66.4 °F 51.6 °F 30.09 in SSW 5.0 mph 8.0 mph 59 % 0.00 in 202 W/m2
17:14 66.0 °F 51.3 °F 30.09 in SSW 4.0 mph 9.0 mph 59 % 0.00 in 156 W/m2
17:19 66.0 °F 50.8 °F 30.08 in SSW 5.0 mph 9.0 mph 58 % 0.00 in 183 W/m2
17:25 66.0 °F 50.8 °F 30.08 in SW 6.0 mph 13.0 mph 58 % 0.00 in 250 W/m2
17:30 66.4 °F 51.2 °F 30.08 in WSW 7.0 mph 13.0 mph 58 % 0.00 in 339 W/m2
17:35 66.9 °F 50.7 °F 30.08 in WSW 8.0 mph 11.0 mph 56 % 0.00 in 385 W/m2
17:40 66.9 °F 50.7 °F 30.08 in SW 8.0 mph 12.0 mph 56 % 0.00 in 304 W/m2
17:50 66.7 °F 51.0 °F 30.08 in SSW 6.0 mph 10.0 mph 57 % 0.00 in 262 W/m2
17:55 66.7 °F 51.0 °F 30.08 in SSW 6.0 mph 10.0 mph 57 % 0.00 in 258 W/m2
18:00 66.6 °F 50.8 °F 30.07 in SSW 6.0 mph 10.0 mph 57 % 0.00 in 244 W/m2
18:05 66.6 °F 50.8 °F 30.07 in SW 5.0 mph 8.0 mph 57 % 0.00 in 221 W/m2
18:10 66.4 °F 50.7 °F 30.07 in SW 6.0 mph 11.0 mph 57 % 0.00 in 204 W/m2
18:15 66.4 °F 50.7 °F 30.07 in SSW 6.0 mph 11.0 mph 57 % 0.00 in 190 W/m2
18:20 66.4 °F 50.7 °F 30.07 in SSW 5.0 mph 11.0 mph 57 % 0.00 in 178 W/m2
18:25 66.2 °F 50.0 °F 30.07 in SSW 6.0 mph 10.0 mph 56 % 0.00 in 162 W/m2
18:30 66.0 °F 50.3 °F 30.07 in SSW 6.0 mph 10.0 mph 57 % 0.00 in 149 W/m2
18:35 66.0 °F 49.9 °F 30.07 in SSW 6.0 mph 10.0 mph 56 % 0.00 in 135 W/m2
18:40 65.8 °F 49.7 °F 30.07 in SSW 6.0 mph 10.0 mph 56 % 0.00 in 123 W/m2
18:45 65.7 °F 50.0 °F 30.07 in SSW 6.0 mph 10.0 mph 57 % 0.00 in 107 W/m2
18:50 65.5 °F 49.4 °F 30.06 in SSW 6.0 mph 9.0 mph 56 % 0.00 in 58 W/m2
18:55 65.1 °F 50.0 °F 30.06 in SW 5.0 mph 9.0 mph 58 % 0.00 in 46 W/m2
19:00 64.9 °F 49.8 °F 30.06 in SW 5.0 mph 7.0 mph 58 % 0.00 in 35 W/m2
19:05 64.6 °F 49.9 °F 30.06 in SSW 4.0 mph 7.0 mph 59 % 0.00 in 25 W/m2
19:10 64.0 °F 49.4 °F 30.06 in SSW 4.0 mph 7.0 mph 59 % 0.00 in 32 W/m2
19:15 63.9 °F 49.7 °F 30.06 in SSW 3.0 mph 6.0 mph 60 % 0.00 in 28 W/m2
19:20 63.5 °F 49.8 °F 30.06 in SSW 2.0 mph 6.0 mph 61 % 0.00 in 18 W/m2
19:25 63.3 °F 49.6 °F 30.06 in SSW 1.0 mph 5.0 mph 61 % 0.00 in 14 W/m2
19:30 63.0 °F 49.7 °F 30.06 in SSW 1.0 mph 5.0 mph 62 % 0.00 in 11 W/m2
19:31 63.0 °F 49.7 °F 30.06 in SSW 1.0 mph 5.0 mph 62 % 0.00 in 11 W/m2
19:36 62.8 °F 49.6 °F 30.06 in SSW 1.0 mph 5.0 mph 62 % 0.00 in 9 W/m2
19:41 62.4 °F 49.7 °F 30.06 in SSW 1.0 mph 4.0 mph 63 % 0.00 in 7 W/m2
19:46 62.2 °F 49.9 °F 30.06 in SSW 2.0 mph 4.0 mph 64 % 0.00 in 5 W/m2
19:51 61.9 °F 50.0 °F 30.06 in SSW 1.0 mph 4.0 mph 65 % 0.00 in 0 W/m2
19:56 61.5 °F 50.1 °F 30.06 in SSW 1.0 mph 4.0 mph 66 % 0.00 in 0 W/m2
20:01 61.2 °F 50.1 °F 30.06 in SSW 1.0 mph 4.0 mph 67 % 0.00 in 0 W/m2
20:06 60.8 °F 49.8 °F 30.06 in SSW 1.0 mph 4.0 mph 67 % 0.00 in 0 W/m2
20:11 60.4 °F 49.4 °F 30.06 in Calm   2.0 mph 67 % 0.00 in 0 W/m2
20:16 60.1 °F 49.5 °F 30.06 in Calm   2.0 mph 68 % 0.00 in 0 W/m2
20:21 59.7 °F 49.5 °F 30.06 in SSW 1.0 mph 2.0 mph 69 % 0.00 in 0 W/m2
20:26 59.4 °F 49.6 °F 30.06 in SSW 1.0 mph 3.0 mph 70 % 0.00 in 0 W/m2
20:31 59.2 °F 49.4 °F 30.06 in SSW 1.0 mph 4.0 mph 70 % 0.00 in 0 W/m2
20:36 58.8 °F 49.4 °F 30.06 in SW 1.0 mph 4.0 mph 71 % 0.00 in 0 W/m2
20:41 58.6 °F 49.6 °F 30.06 in SW 1.0 mph 4.0 mph 72 % 0.00 in 0 W/m2
20:46 58.3 °F 49.3 °F 30.06 in SW 1.0 mph 3.0 mph 72 % 0.00 in 0 W/m2
20:51 58.1 °F 49.5 °F 30.06 in SW 1.0 mph 3.0 mph 73 % 0.00 in 0 W/m2
20:56 57.9 °F 49.3 °F 30.06 in SW 1.0 mph 3.0 mph 73 % 0.00 in 0 W/m2
21:01 57.6 °F 49.0 °F 30.05 in Calm   2.0 mph 73 % 0.00 in 0 W/m2
21:06 57.4 °F 49.2 °F 30.05 in Calm   2.0 mph 74 % 0.00 in 0 W/m2
21:11 57.2 °F 49.0 °F 30.05 in Calm   1.0 mph 74 % 0.00 in 0 W/m2
21:16 56.8 °F 49.0 °F 30.05 in Calm   1.0 mph 75 % 0.00 in 0 W/m2
21:21 56.7 °F 49.2 °F 30.05 in Calm     76 % 0.00 in 0 W/m2
21:26 56.1 °F 48.7 °F 30.05 in Calm     76 % 0.00 in 0 W/m2
21:31 55.9 °F 48.8 °F 30.05 in Calm     77 % 0.00 in 0 W/m2
21:36 55.6 °F 48.5 °F 30.05 in Calm     77 % 0.00 in 0 W/m2
21:41 55.2 °F 48.8 °F 30.05 in Calm     79 % 0.00 in 0 W/m2
21:46 54.9 °F 48.5 °F 30.05 in Calm     79 % 0.00 in 0 W/m2
21:48 54.7 °F 48.3 °F 30.05 in Calm     79 % 0.00 in 0 W/m2
21:53 54.3 °F 48.3 °F 30.05 in Calm     80 % 0.00 in 0 W/m2
21:58 54.0 °F 48.3 °F 30.05 in Calm     81 % 0.00 in 0 W/m2
22:03 53.8 °F 48.4 °F 30.05 in Calm     82 % 0.00 in 0 W/m2
22:08 53.4 °F 48.4 °F 30.05 in Calm     83 % 0.00 in 0 W/m2
22:13 53.1 °F 48.0 °F 30.05 in Calm     83 % 0.00 in 0 W/m2
22:18 52.9 °F 47.9 °F 30.05 in Calm     83 % 0.00 in 0 W/m2
22:23 52.5 °F 47.8 °F 30.05 in Calm     84 % 0.00 in 0 W/m2
22:28 52.3 °F 47.6 °F 30.05 in Calm     84 % 0.00 in 0 W/m2
22:33 52.2 °F 47.8 °F 30.05 in Calm     85 % 0.00 in 0 W/m2
22:38 52.0 °F 47.6 °F 30.04 in Calm     85 % 0.00 in 0 W/m2
22:43 52.0 °F 47.6 °F 30.04 in Calm     85 % 0.00 in 0 W/m2
22:48 51.6 °F 47.6 °F 30.04 in Calm     86 % 0.00 in 0 W/m2
22:53 51.4 °F 47.4 °F 30.04 in Calm     86 % 0.00 in 0 W/m2
22:58 51.3 °F 47.5 °F 30.04 in Calm   2.0 mph 87 % 0.00 in 0 W/m2
23:03 51.1 °F 47.3 °F 30.04 in Calm   2.0 mph 87 % 0.00 in 0 W/m2
23:08 51.1 °F 47.3 °F 30.04 in Calm     87 % 0.00 in 0 W/m2
23:13 50.7 °F 47.0 °F 30.03 in Calm     87 % 0.00 in 0 W/m2
23:19 50.7 °F 47.3 °F 30.03 in Calm     88 % 0.00 in 0 W/m2
23:24 50.5 °F 47.1 °F 30.03 in Calm     88 % 0.00 in 0 W/m2
23:29 50.4 °F 46.9 °F 30.04 in Calm     88 % 0.00 in 0 W/m2
23:34 50.4 °F 46.9 °F 30.03 in Calm   2.0 mph 88 % 0.00 in 0 W/m2
23:39 50.4 °F 47.2 °F 30.03 in Calm   2.0 mph 89 % 0.00 in 0 W/m2
23:44 50.2 °F 47.1 °F 30.03 in Calm     89 % 0.00 in 0 W/m2
23:49 50.2 °F 47.1 °F 30.03 in Calm     89 % 0.00 in 0 W/m2
23:54 50.2 °F 47.1 °F 30.03 in Calm     89 % 0.00 in 0 W/m2
23:59 49.8 °F 46.7 °F 30.03 in Calm     89 % 0.00 in 0 W/m2
Delerius-Weather
Compliments of Weather Underground - 2.25 mb

Data updates at regular intervals.